sensor_id;sensor_type;location;lat;lon;timestamp;temperature;humidity
26278;DHT22;14000;52.056;8.510;2023-06-22T00:00:52;18.10;99.90
26278;DHT22;14000;52.056;8.510;2023-06-22T00:03:19;18.10;99.90
26278;DHT22;14000;52.056;8.510;2023-06-22T00:05:45;18.10;99.90
26278;DHT22;14000;52.056;8.510;2023-06-22T00:08:11;18.10;99.90
26278;DHT22;14000;52.056;8.510;2023-06-22T00:10:36;18.10;99.90
26278;DHT22;14000;52.056;8.510;2023-06-22T00:13:02;18.10;99.90
26278;DHT22;14000;52.056;8.510;2023-06-22T00:15:28;18.10;99.90
26278;DHT22;14000;52.056;8.510;2023-06-22T00:17:54;18.00;99.90
26278;DHT22;14000;52.056;8.510;2023-06-22T00:20:19;18.00;99.90
26278;DHT22;14000;52.056;8.510;2023-06-22T00:22:45;18.00;99.90
26278;DHT22;14000;52.056;8.510;2023-06-22T00:25:11;17.90;99.90
26278;DHT22;14000;52.056;8.510;2023-06-22T00:27:37;17.90;99.90
26278;DHT22;14000;52.056;8.510;2023-06-22T00:30:03;17.80;99.90
26278;DHT22;14000;52.056;8.510;2023-06-22T00:32:29;17.80;99.90
26278;DHT22;14000;52.056;8.510;2023-06-22T00:34:54;17.80;99.90
26278;DHT22;14000;52.056;8.510;2023-06-22T00:37:20;17.80;99.90
26278;DHT22;14000;52.056;8.510;2023-06-22T00:39:51;17.90;99.90
26278;DHT22;14000;52.056;8.510;2023-06-22T00:42:17;17.90;99.90
26278;DHT22;14000;52.056;8.510;2023-06-22T00:44:42;17.80;99.90
26278;DHT22;14000;52.056;8.510;2023-06-22T00:47:09;17.80;99.90
26278;DHT22;14000;52.056;8.510;2023-06-22T00:49:35;17.80;99.90
26278;DHT22;14000;52.056;8.510;2023-06-22T00:52:00;17.80;99.90
26278;DHT22;14000;52.056;8.510;2023-06-22T00:54:26;17.70;99.90
26278;DHT22;14000;52.056;8.510;2023-06-22T00:56:54;17.80;99.90
26278;DHT22;14000;52.056;8.510;2023-06-22T00:59:22;17.80;99.90
26278;DHT22;14000;52.056;8.510;2023-06-22T01:01:48;17.80;99.90
26278;DHT22;14000;52.056;8.510;2023-06-22T01:04:14;17.80;99.90
26278;DHT22;14000;52.056;8.510;2023-06-22T01:09:33;17.80;99.90
26278;DHT22;14000;52.056;8.510;2023-06-22T01:12:02;17.80;99.90
26278;DHT22;14000;52.056;8.510;2023-06-22T01:14:46;17.80;99.90
26278;DHT22;14000;52.056;8.510;2023-06-22T01:17:15;17.80;99.90
26278;DHT22;14000;52.056;8.510;2023-06-22T01:19:49;17.80;99.90
26278;DHT22;14000;52.056;8.510;2023-06-22T01:22:19;17.80;99.90
26278;DHT22;14000;52.056;8.510;2023-06-22T01:30:11;17.80;99.90
26278;DHT22;14000;52.056;8.510;2023-06-22T01:32:40;17.80;99.90
26278;DHT22;14000;52.056;8.510;2023-06-22T01:35:08;17.70;99.90
26278;DHT22;14000;52.056;8.510;2023-06-22T01:37:36;17.70;99.90
26278;DHT22;14000;52.056;8.510;2023-06-22T01:40:04;17.70;99.90
26278;DHT22;14000;52.056;8.510;2023-06-22T01:42:31;17.70;99.90
26278;DHT22;14000;52.056;8.510;2023-06-22T01:44:58;17.70;99.90
26278;DHT22;14000;52.056;8.510;2023-06-22T01:47:25;17.70;99.90
26278;DHT22;14000;52.056;8.510;2023-06-22T01:49:51;17.80;99.90
26278;DHT22;14000;52.056;8.510;2023-06-22T01:52:17;17.80;99.90
26278;DHT22;14000;52.056;8.510;2023-06-22T01:54:43;17.80;99.90
26278;DHT22;14000;52.056;8.510;2023-06-22T01:57:09;17.80;99.90
26278;DHT22;14000;52.056;8.510;2023-06-22T01:59:44;17.80;99.90
26278;DHT22;14000;52.056;8.510;2023-06-22T02:02:12;17.80;99.90
26278;DHT22;14000;52.056;8.510;2023-06-22T02:04:47;17.80;99.90
26278;DHT22;14000;52.056;8.510;2023-06-22T02:07:15;17.80;99.90
26278;DHT22;14000;52.056;8.510;2023-06-22T02:09:45;17.80;99.90
26278;DHT22;14000;52.056;8.510;2023-06-22T02:12:15;17.70;99.90
26278;DHT22;14000;52.056;8.510;2023-06-22T02:14:42;17.80;99.90
26278;DHT22;14000;52.056;8.510;2023-06-22T02:17:09;17.70;99.90
26278;DHT22;14000;52.056;8.510;2023-06-22T02:19:38;17.70;99.90
26278;DHT22;14000;52.056;8.510;2023-06-22T02:22:06;17.70;99.90
26278;DHT22;14000;52.056;8.510;2023-06-22T02:24:31;17.70;99.90
26278;DHT22;14000;52.056;8.510;2023-06-22T02:27:01;17.60;99.90
26278;DHT22;14000;52.056;8.510;2023-06-22T02:29:27;17.70;99.90
26278;DHT22;14000;52.056;8.510;2023-06-22T02:31:54;17.60;99.90
26278;DHT22;14000;52.056;8.510;2023-06-22T02:34:21;17.60;99.90
26278;DHT22;14000;52.056;8.510;2023-06-22T02:36:47;17.60;99.90
26278;DHT22;14000;52.056;8.510;2023-06-22T02:39:25;17.60;99.90
26278;DHT22;14000;52.056;8.510;2023-06-22T02:41:52;17.60;99.90
26278;DHT22;14000;52.056;8.510;2023-06-22T02:44:19;17.60;99.90
26278;DHT22;14000;52.056;8.510;2023-06-22T02:46:45;17.60;99.90
26278;DHT22;14000;52.056;8.510;2023-06-22T02:49:11;17.60;99.90
26278;DHT22;14000;52.056;8.510;2023-06-22T02:51:47;17.60;99.90
26278;DHT22;14000;52.056;8.510;2023-06-22T02:54:13;17.60;99.90
26278;DHT22;14000;52.056;8.510;2023-06-22T02:56:38;17.60;99.90
26278;DHT22;14000;52.056;8.510;2023-06-22T02:59:06;17.60;99.90
26278;DHT22;14000;52.056;8.510;2023-06-22T03:01:31;17.60;99.90
26278;DHT22;14000;52.056;8.510;2023-06-22T03:04:03;17.60;99.90
26278;DHT22;14000;52.056;8.510;2023-06-22T03:06:30;17.60;99.90
26278;DHT22;14000;52.056;8.510;2023-06-22T03:09:03;17.60;99.90
26278;DHT22;14000;52.056;8.510;2023-06-22T03:11:33;17.60;99.90
26278;DHT22;14000;52.056;8.510;2023-06-22T03:14:01;17.60;99.90
26278;DHT22;14000;52.056;8.510;2023-06-22T03:16:27;17.60;99.90
26278;DHT22;14000;52.056;8.510;2023-06-22T03:18:52;17.60;99.90
26278;DHT22;14000;52.056;8.510;2023-06-22T03:21:19;17.60;99.90
26278;DHT22;14000;52.056;8.510;2023-06-22T03:23:45;17.50;99.90
26278;DHT22;14000;52.056;8.510;2023-06-22T03:26:10;17.50;99.90
26278;DHT22;14000;52.056;8.510;2023-06-22T03:28:37;17.50;99.90
26278;DHT22;14000;52.056;8.510;2023-06-22T03:31:03;17.40;99.90
26278;DHT22;14000;52.056;8.510;2023-06-22T03:33:29;17.40;99.90
26278;DHT22;14000;52.056;8.510;2023-06-22T03:35:55;17.40;99.90
26278;DHT22;14000;52.056;8.510;2023-06-22T03:38:20;17.40;99.90
26278;DHT22;14000;52.056;8.510;2023-06-22T03:40:46;17.50;99.90
26278;DHT22;14000;52.056;8.510;2023-06-22T03:43:12;17.50;99.90
26278;DHT22;14000;52.056;8.510;2023-06-22T03:45:37;17.50;99.90
26278;DHT22;14000;52.056;8.510;2023-06-22T03:48:03;17.50;99.90
26278;DHT22;14000;52.056;8.510;2023-06-22T03:50:29;17.50;99.90
26278;DHT22;14000;52.056;8.510;2023-06-22T03:52:55;17.50;99.90
26278;DHT22;14000;52.056;8.510;2023-06-22T03:55:21;17.60;99.90
26278;DHT22;14000;52.056;8.510;2023-06-22T03:57:46;17.60;99.90
26278;DHT22;14000;52.056;8.510;2023-06-22T04:00:12;17.60;99.90
26278;DHT22;14000;52.056;8.510;2023-06-22T04:02:38;17.60;99.90
26278;DHT22;14000;52.056;8.510;2023-06-22T04:05:04;17.70;99.90
26278;DHT22;14000;52.056;8.510;2023-06-22T04:07:30;17.70;99.90
26278;DHT22;14000;52.056;8.510;2023-06-22T04:09:56;17.70;99.90
26278;DHT22;14000;52.056;8.510;2023-06-22T04:12:21;17.70;99.90
26278;DHT22;14000;52.056;8.510;2023-06-22T04:14:47;17.70;99.90
26278;DHT22;14000;52.056;8.510;2023-06-22T04:17:12;17.70;99.90
26278;DHT22;14000;52.056;8.510;2023-06-22T04:19:39;17.70;99.90
26278;DHT22;14000;52.056;8.510;2023-06-22T04:22:05;17.80;99.90
26278;DHT22;14000;52.056;8.510;2023-06-22T04:24:33;17.70;99.90
26278;DHT22;14000;52.056;8.510;2023-06-22T04:26:58;17.80;99.90
26278;DHT22;14000;52.056;8.510;2023-06-22T04:29:26;17.80;99.90
26278;DHT22;14000;52.056;8.510;2023-06-22T04:31:54;17.80;99.90
26278;DHT22;14000;52.056;8.510;2023-06-22T04:34:21;17.80;99.90
26278;DHT22;14000;52.056;8.510;2023-06-22T04:36:46;17.90;99.90
26278;DHT22;14000;52.056;8.510;2023-06-22T04:39:13;18.00;99.90
26278;DHT22;14000;52.056;8.510;2023-06-22T04:41:39;18.00;99.90
26278;DHT22;14000;52.056;8.510;2023-06-22T04:44:09;18.00;99.90
26278;DHT22;14000;52.056;8.510;2023-06-22T04:46:36;18.00;99.90
26278;DHT22;14000;52.056;8.510;2023-06-22T04:49:12;18.10;99.90
26278;DHT22;14000;52.056;8.510;2023-06-22T04:51:40;18.10;99.90
26278;DHT22;14000;52.056;8.510;2023-06-22T04:54:06;18.10;99.90
26278;DHT22;14000;52.056;8.510;2023-06-22T04:56:33;18.20;99.90
26278;DHT22;14000;52.056;8.510;2023-06-22T04:58:59;18.20;99.90
26278;DHT22;14000;52.056;8.510;2023-06-22T05:01:25;18.20;99.90
26278;DHT22;14000;52.056;8.510;2023-06-22T05:03:51;18.30;99.90
26278;DHT22;14000;52.056;8.510;2023-06-22T05:06:21;18.30;99.90
26278;DHT22;14000;52.056;8.510;2023-06-22T05:08:56;18.40;99.90
26278;DHT22;14000;52.056;8.510;2023-06-22T05:11:24;18.40;99.90
26278;DHT22;14000;52.056;8.510;2023-06-22T05:13:49;18.40;99.90
26278;DHT22;14000;52.056;8.510;2023-06-22T05:16:15;18.50;99.90
26278;DHT22;14000;52.056;8.510;2023-06-22T05:18:41;18.50;99.90
26278;DHT22;14000;52.056;8.510;2023-06-22T05:21:07;18.60;99.90
26278;DHT22;14000;52.056;8.510;2023-06-22T05:23:32;18.60;99.90
26278;DHT22;14000;52.056;8.510;2023-06-22T05:25:58;18.70;99.90
26278;DHT22;14000;52.056;8.510;2023-06-22T05:28:24;18.70;99.90
26278;DHT22;14000;52.056;8.510;2023-06-22T05:30:49;18.80;99.90
26278;DHT22;14000;52.056;8.510;2023-06-22T05:33:15;18.80;99.90
26278;DHT22;14000;52.056;8.510;2023-06-22T05:35:40;18.80;99.90
26278;DHT22;14000;52.056;8.510;2023-06-22T05:38:07;18.80;99.90
26278;DHT22;14000;52.056;8.510;2023-06-22T05:40:33;18.90;99.90
26278;DHT22;14000;52.056;8.510;2023-06-22T05:42:58;18.90;99.90
26278;DHT22;14000;52.056;8.510;2023-06-22T05:45:26;19.00;99.90
26278;DHT22;14000;52.056;8.510;2023-06-22T05:47:51;19.00;99.90
26278;DHT22;14000;52.056;8.510;2023-06-22T05:50:17;19.00;99.90
26278;DHT22;14000;52.056;8.510;2023-06-22T05:52:42;19.00;99.90
26278;DHT22;14000;52.056;8.510;2023-06-22T05:55:08;19.00;99.90
26278;DHT22;14000;52.056;8.510;2023-06-22T05:57:34;19.10;99.90
26278;DHT22;14000;52.056;8.510;2023-06-22T05:59:59;19.20;99.90
26278;DHT22;14000;52.056;8.510;2023-06-22T06:02:25;19.30;99.90
26278;DHT22;14000;52.056;8.510;2023-06-22T06:04:51;19.30;99.90
26278;DHT22;14000;52.056;8.510;2023-06-22T06:07:18;19.50;99.90
26278;DHT22;14000;52.056;8.510;2023-06-22T06:09:43;19.50;99.90
26278;DHT22;14000;52.056;8.510;2023-06-22T06:12:09;19.60;99.90
26278;DHT22;14000;52.056;8.510;2023-06-22T06:14:35;19.60;99.90
26278;DHT22;14000;52.056;8.510;2023-06-22T06:17:00;19.70;99.90
26278;DHT22;14000;52.056;8.510;2023-06-22T06:19:26;19.70;99.90
26278;DHT22;14000;52.056;8.510;2023-06-22T06:21:51;19.80;99.90
26278;DHT22;14000;52.056;8.510;2023-06-22T06:24:17;19.90;99.90
26278;DHT22;14000;52.056;8.510;2023-06-22T06:26:42;20.00;99.90
26278;DHT22;14000;52.056;8.510;2023-06-22T06:29:08;20.10;99.90
26278;DHT22;14000;52.056;8.510;2023-06-22T06:31:34;20.10;99.90
26278;DHT22;14000;52.056;8.510;2023-06-22T06:33:59;20.20;99.90
26278;DHT22;14000;52.056;8.510;2023-06-22T06:36:25;20.10;99.90
26278;DHT22;14000;52.056;8.510;2023-06-22T06:38:53;20.30;99.90
26278;DHT22;14000;52.056;8.510;2023-06-22T06:41:19;20.50;99.90
26278;DHT22;14000;52.056;8.510;2023-06-22T06:43:45;20.60;99.90
26278;DHT22;14000;52.056;8.510;2023-06-22T06:46:10;20.70;99.90
26278;DHT22;14000;52.056;8.510;2023-06-22T06:48:36;20.90;99.90
26278;DHT22;14000;52.056;8.510;2023-06-22T06:51:02;20.90;99.90
26278;DHT22;14000;52.056;8.510;2023-06-22T06:53:27;21.00;99.90
26278;DHT22;14000;52.056;8.510;2023-06-22T06:55:54;21.10;99.90
26278;DHT22;14000;52.056;8.510;2023-06-22T06:58:20;21.10;99.90
26278;DHT22;14000;52.056;8.510;2023-06-22T07:00:45;21.20;99.90
26278;DHT22;14000;52.056;8.510;2023-06-22T07:03:11;21.30;99.90
26278;DHT22;14000;52.056;8.510;2023-06-22T07:05:37;21.40;99.90
26278;DHT22;14000;52.056;8.510;2023-06-22T07:08:02;21.50;99.90
26278;DHT22;14000;52.056;8.510;2023-06-22T07:10:28;21.60;99.90
26278;DHT22;14000;52.056;8.510;2023-06-22T07:12:54;21.60;99.90
26278;DHT22;14000;52.056;8.510;2023-06-22T07:15:20;21.60;99.90
26278;DHT22;14000;52.056;8.510;2023-06-22T07:17:45;21.60;99.90
26278;DHT22;14000;52.056;8.510;2023-06-22T07:20:11;21.70;99.90
26278;DHT22;14000;52.056;8.510;2023-06-22T07:22:42;21.70;99.90
26278;DHT22;14000;52.056;8.510;2023-06-22T07:25:08;21.70;99.90
26278;DHT22;14000;52.056;8.510;2023-06-22T07:30:23;21.50;99.90
26278;DHT22;14000;52.056;8.510;2023-06-22T07:32:48;21.60;99.90
26278;DHT22;14000;52.056;8.510;2023-06-22T07:35:14;21.50;99.90
26278;DHT22;14000;52.056;8.510;2023-06-22T07:37:41;21.50;99.90
26278;DHT22;14000;52.056;8.510;2023-06-22T07:40:08;21.50;99.90
26278;DHT22;14000;52.056;8.510;2023-06-22T07:42:34;21.60;99.90
26278;DHT22;14000;52.056;8.510;2023-06-22T07:44:59;21.60;99.90
26278;DHT22;14000;52.056;8.510;2023-06-22T07:47:25;21.60;99.90
26278;DHT22;14000;52.056;8.510;2023-06-22T07:49:58;21.70;99.90
26278;DHT22;14000;52.056;8.510;2023-06-22T07:52:26;21.80;99.90
26278;DHT22;14000;52.056;8.510;2023-06-22T07:54:52;21.70;99.90
26278;DHT22;14000;52.056;8.510;2023-06-22T07:57:17;21.70;99.90
26278;DHT22;14000;52.056;8.510;2023-06-22T07:59:44;21.80;99.90
26278;DHT22;14000;52.056;8.510;2023-06-22T08:02:09;21.80;99.90
26278;DHT22;14000;52.056;8.510;2023-06-22T08:04:35;21.80;99.90
26278;DHT22;14000;52.056;8.510;2023-06-22T08:07:02;21.80;99.90
26278;DHT22;14000;52.056;8.510;2023-06-22T08:09:31;21.80;99.90
26278;DHT22;14000;52.056;8.510;2023-06-22T08:11:56;21.80;99.90
26278;DHT22;14000;52.056;8.510;2023-06-22T08:14:26;21.80;99.90
26278;DHT22;14000;52.056;8.510;2023-06-22T08:16:52;21.80;99.90
26278;DHT22;14000;52.056;8.510;2023-06-22T08:19:17;21.80;99.90
26278;DHT22;14000;52.056;8.510;2023-06-22T08:21:43;21.90;99.90
26278;DHT22;14000;52.056;8.510;2023-06-22T08:24:09;22.00;99.90
26278;DHT22;14000;52.056;8.510;2023-06-22T08:26:35;22.00;99.90
26278;DHT22;14000;52.056;8.510;2023-06-22T08:29:04;22.20;99.90
26278;DHT22;14000;52.056;8.510;2023-06-22T08:31:31;22.30;99.90
26278;DHT22;14000;52.056;8.510;2023-06-22T08:33:59;22.40;99.90
26278;DHT22;14000;52.056;8.510;2023-06-22T08:36:25;22.40;99.90
26278;DHT22;14000;52.056;8.510;2023-06-22T08:38:54;22.50;99.90
26278;DHT22;14000;52.056;8.510;2023-06-22T08:41:26;22.70;99.90
26278;DHT22;14000;52.056;8.510;2023-06-22T08:43:52;22.80;99.90
26278;DHT22;14000;52.056;8.510;2023-06-22T08:46:19;22.80;99.90
26278;DHT22;14000;52.056;8.510;2023-06-22T08:48:49;22.90;99.90
26278;DHT22;14000;52.056;8.510;2023-06-22T08:51:14;22.90;99.90
26278;DHT22;14000;52.056;8.510;2023-06-22T08:53:40;23.00;99.90
26278;DHT22;14000;52.056;8.510;2023-06-22T08:56:05;23.10;99.90
26278;DHT22;14000;52.056;8.510;2023-06-22T08:58:31;23.20;99.90
26278;DHT22;14000;52.056;8.510;2023-06-22T09:00:56;23.20;99.90
26278;DHT22;14000;52.056;8.510;2023-06-22T09:03:22;23.20;99.90
26278;DHT22;14000;52.056;8.510;2023-06-22T09:05:51;23.30;99.90
26278;DHT22;14000;52.056;8.510;2023-06-22T09:08:17;23.50;99.90
26278;DHT22;14000;52.056;8.510;2023-06-22T09:10:42;23.60;99.90
26278;DHT22;14000;52.056;8.510;2023-06-22T09:13:08;23.70;99.90
26278;DHT22;14000;52.056;8.510;2023-06-22T09:15:34;23.80;99.90
26278;DHT22;14000;52.056;8.510;2023-06-22T09:18:00;23.90;99.90
26278;DHT22;14000;52.056;8.510;2023-06-22T09:20:26;24.10;99.90
26278;DHT22;14000;52.056;8.510;2023-06-22T09:22:51;24.20;99.90
26278;DHT22;14000;52.056;8.510;2023-06-22T09:25:17;24.20;99.90
26278;DHT22;14000;52.056;8.510;2023-06-22T09:27:46;24.30;99.90
26278;DHT22;14000;52.056;8.510;2023-06-22T09:30:11;24.60;99.90
26278;DHT22;14000;52.056;8.510;2023-06-22T09:32:37;24.50;99.90
26278;DHT22;14000;52.056;8.510;2023-06-22T09:35:04;24.70;99.90
26278;DHT22;14000;52.056;8.510;2023-06-22T09:37:31;24.70;99.90
26278;DHT22;14000;52.056;8.510;2023-06-22T09:39:56;25.00;99.90
26278;DHT22;14000;52.056;8.510;2023-06-22T09:42:22;25.00;99.90
26278;DHT22;14000;52.056;8.510;2023-06-22T09:44:47;25.00;99.90
26278;DHT22;14000;52.056;8.510;2023-06-22T09:47:13;25.00;99.90
26278;DHT22;14000;52.056;8.510;2023-06-22T09:49:38;24.90;99.90
26278;DHT22;14000;52.056;8.510;2023-06-22T09:52:05;24.80;99.90
26278;DHT22;14000;52.056;8.510;2023-06-22T09:54:30;24.80;99.90
26278;DHT22;14000;52.056;8.510;2023-06-22T09:56:56;24.80;99.90
26278;DHT22;14000;52.056;8.510;2023-06-22T09:59:22;24.90;99.90
26278;DHT22;14000;52.056;8.510;2023-06-22T10:01:47;25.10;99.90
26278;DHT22;14000;52.056;8.510;2023-06-22T10:04:13;25.20;99.90
26278;DHT22;14000;52.056;8.510;2023-06-22T10:06:38;25.30;99.90
26278;DHT22;14000;52.056;8.510;2023-06-22T10:09:06;25.40;99.90
26278;DHT22;14000;52.056;8.510;2023-06-22T10:11:33;25.40;99.90
26278;DHT22;14000;52.056;8.510;2023-06-22T10:14:00;25.50;99.90
26278;DHT22;14000;52.056;8.510;2023-06-22T10:16:32;25.70;99.90
26278;DHT22;14000;52.056;8.510;2023-06-22T10:18:59;25.50;99.90
26278;DHT22;14000;52.056;8.510;2023-06-22T10:21:24;25.50;99.90
26278;DHT22;14000;52.056;8.510;2023-06-22T10:23:52;25.40;99.90
26278;DHT22;14000;52.056;8.510;2023-06-22T10:26:18;25.60;99.90
26278;DHT22;14000;52.056;8.510;2023-06-22T10:28:43;25.60;99.90
26278;DHT22;14000;52.056;8.510;2023-06-22T10:31:09;25.70;99.90
26278;DHT22;14000;52.056;8.510;2023-06-22T10:33:34;25.80;99.90
26278;DHT22;14000;52.056;8.510;2023-06-22T10:36:00;26.00;99.90
26278;DHT22;14000;52.056;8.510;2023-06-22T10:38:25;26.00;99.90
26278;DHT22;14000;52.056;8.510;2023-06-22T10:40:51;26.10;99.90
26278;DHT22;14000;52.056;8.510;2023-06-22T10:43:16;26.20;99.90
26278;DHT22;14000;52.056;8.510;2023-06-22T10:45:42;26.30;99.90
26278;DHT22;14000;52.056;8.510;2023-06-22T10:48:08;26.30;99.90
26278;DHT22;14000;52.056;8.510;2023-06-22T10:50:33;26.30;99.90
26278;DHT22;14000;52.056;8.510;2023-06-22T10:52:59;26.30;99.90
26278;DHT22;14000;52.056;8.510;2023-06-22T10:55:24;26.50;99.90
26278;DHT22;14000;52.056;8.510;2023-06-22T10:57:50;26.50;99.90
26278;DHT22;14000;52.056;8.510;2023-06-22T11:00:16;26.70;99.90
26278;DHT22;14000;52.056;8.510;2023-06-22T11:02:41;26.70;99.90
26278;DHT22;14000;52.056;8.510;2023-06-22T11:05:07;26.80;99.90
26278;DHT22;14000;52.056;8.510;2023-06-22T11:07:33;26.90;99.90
26278;DHT22;14000;52.056;8.510;2023-06-22T11:09:59;27.10;99.90
26278;DHT22;14000;52.056;8.510;2023-06-22T11:12:24;26.80;99.90
26278;DHT22;14000;52.056;8.510;2023-06-22T11:14:50;26.70;99.90
26278;DHT22;14000;52.056;8.510;2023-06-22T11:17:17;26.70;99.90
26278;DHT22;14000;52.056;8.510;2023-06-22T11:19:44;26.70;99.90
26278;DHT22;14000;52.056;8.510;2023-06-22T11:22:09;26.80;99.90
26278;DHT22;14000;52.056;8.510;2023-06-22T11:24:35;26.90;99.90
26278;DHT22;14000;52.056;8.510;2023-06-22T11:27:00;27.30;99.90
26278;DHT22;14000;52.056;8.510;2023-06-22T11:29:26;27.90;99.90
26278;DHT22;14000;52.056;8.510;2023-06-22T11:31:51;28.30;99.90
26278;DHT22;14000;52.056;8.510;2023-06-22T11:34:17;28.50;99.90
26278;DHT22;14000;52.056;8.510;2023-06-22T11:36:44;28.90;99.90
26278;DHT22;14000;52.056;8.510;2023-06-22T11:39:10;29.20;99.90
26278;DHT22;14000;52.056;8.510;2023-06-22T11:41:36;29.30;99.90
26278;DHT22;14000;52.056;8.510;2023-06-22T11:44:01;29.00;99.90
26278;DHT22;14000;52.056;8.510;2023-06-22T11:46:29;28.70;99.90
26278;DHT22;14000;52.056;8.510;2023-06-22T11:48:55;28.40;99.90
26278;DHT22;14000;52.056;8.510;2023-06-22T11:51:21;28.30;99.90
26278;DHT22;14000;52.056;8.510;2023-06-22T11:53:46;28.10;99.90
26278;DHT22;14000;52.056;8.510;2023-06-22T11:56:12;27.70;99.90
26278;DHT22;14000;52.056;8.510;2023-06-22T11:58:37;27.50;99.90
26278;DHT22;14000;52.056;8.510;2023-06-22T12:01:03;27.40;99.90
26278;DHT22;14000;52.056;8.510;2023-06-22T12:03:28;27.30;99.90
26278;DHT22;14000;52.056;8.510;2023-06-22T12:05:55;27.10;99.90
26278;DHT22;14000;52.056;8.510;2023-06-22T12:08:21;26.90;99.90
26278;DHT22;14000;52.056;8.510;2023-06-22T12:10:47;26.90;99.90
26278;DHT22;14000;52.056;8.510;2023-06-22T12:13:12;26.70;99.90
26278;DHT22;14000;52.056;8.510;2023-06-22T12:15:38;26.70;99.90
26278;DHT22;14000;52.056;8.510;2023-06-22T12:18:03;26.60;99.90
26278;DHT22;14000;52.056;8.510;2023-06-22T12:20:29;26.60;99.90
26278;DHT22;14000;52.056;8.510;2023-06-22T12:22:55;26.60;99.90
26278;DHT22;14000;52.056;8.510;2023-06-22T12:25:23;26.60;99.90
26278;DHT22;14000;52.056;8.510;2023-06-22T12:27:49;26.50;99.90
26278;DHT22;14000;52.056;8.510;2023-06-22T12:30:16;26.40;99.90
26278;DHT22;14000;52.056;8.510;2023-06-22T12:32:41;26.30;99.90
26278;DHT22;14000;52.056;8.510;2023-06-22T12:35:07;26.30;99.90
26278;DHT22;14000;52.056;8.510;2023-06-22T12:37:37;26.20;99.90
26278;DHT22;14000;52.056;8.510;2023-06-22T12:40:03;26.10;99.90
26278;DHT22;14000;52.056;8.510;2023-06-22T12:42:29;25.90;99.90
26278;DHT22;14000;52.056;8.510;2023-06-22T12:44:55;25.80;99.90
26278;DHT22;14000;52.056;8.510;2023-06-22T12:47:20;25.70;99.90
26278;DHT22;14000;52.056;8.510;2023-06-22T12:49:46;25.80;99.90
26278;DHT22;14000;52.056;8.510;2023-06-22T12:52:11;25.70;99.90
26278;DHT22;14000;52.056;8.510;2023-06-22T12:54:37;25.50;99.90
26278;DHT22;14000;52.056;8.510;2023-06-22T12:57:03;25.40;99.90
26278;DHT22;14000;52.056;8.510;2023-06-22T12:59:28;25.20;99.90
26278;DHT22;14000;52.056;8.510;2023-06-22T13:01:54;25.00;99.90
26278;DHT22;14000;52.056;8.510;2023-06-22T13:04:20;25.00;99.90
26278;DHT22;14000;52.056;8.510;2023-06-22T13:06:46;24.80;99.90
26278;DHT22;14000;52.056;8.510;2023-06-22T13:09:13;24.70;99.90
26278;DHT22;14000;52.056;8.510;2023-06-22T13:11:39;24.50;99.90
26278;DHT22;14000;52.056;8.510;2023-06-22T13:14:05;24.40;99.90
26278;DHT22;14000;52.056;8.510;2023-06-22T13:16:30;24.30;99.90
26278;DHT22;14000;52.056;8.510;2023-06-22T13:18:56;24.10;99.90
26278;DHT22;14000;52.056;8.510;2023-06-22T13:21:21;24.00;99.90
26278;DHT22;14000;52.056;8.510;2023-06-22T13:23:47;23.90;99.90
26278;DHT22;14000;52.056;8.510;2023-06-22T13:26:12;23.70;99.90
26278;DHT22;14000;52.056;8.510;2023-06-22T13:28:38;23.50;99.90
26278;DHT22;14000;52.056;8.510;2023-06-22T13:31:04;23.30;99.90
26278;DHT22;14000;52.056;8.510;2023-06-22T13:33:29;23.00;99.90
26278;DHT22;14000;52.056;8.510;2023-06-22T13:35:55;22.80;99.90
26278;DHT22;14000;52.056;8.510;2023-06-22T13:38:21;22.60;99.90
26278;DHT22;14000;52.056;8.510;2023-06-22T13:40:47;22.50;99.90
26278;DHT22;14000;52.056;8.510;2023-06-22T13:43:13;22.20;99.90
26278;DHT22;14000;52.056;8.510;2023-06-22T13:45:39;22.10;99.90
26278;DHT22;14000;52.056;8.510;2023-06-22T13:48:04;22.00;99.90
26278;DHT22;14000;52.056;8.510;2023-06-22T13:50:30;21.90;99.90
26278;DHT22;14000;52.056;8.510;2023-06-22T13:52:56;21.90;99.90
26278;DHT22;14000;52.056;8.510;2023-06-22T13:55:22;21.80;99.90
26278;DHT22;14000;52.056;8.510;2023-06-22T13:57:48;21.80;99.90
26278;DHT22;14000;52.056;8.510;2023-06-22T14:00:14;21.70;99.90
26278;DHT22;14000;52.056;8.510;2023-06-22T14:02:40;21.60;99.90
26278;DHT22;14000;52.056;8.510;2023-06-22T14:05:07;21.60;99.90
26278;DHT22;14000;52.056;8.510;2023-06-22T14:07:32;21.60;99.90
26278;DHT22;14000;52.056;8.510;2023-06-22T14:09:59;21.60;99.90
26278;DHT22;14000;52.056;8.510;2023-06-22T14:12:25;21.50;99.90
26278;DHT22;14000;52.056;8.510;2023-06-22T14:14:50;21.40;99.90
26278;DHT22;14000;52.056;8.510;2023-06-22T14:17:16;21.30;99.90
26278;DHT22;14000;52.056;8.510;2023-06-22T14:19:41;21.20;99.90
26278;DHT22;14000;52.056;8.510;2023-06-22T14:22:07;21.20;99.90
26278;DHT22;14000;52.056;8.510;2023-06-22T14:24:33;21.10;99.90
26278;DHT22;14000;52.056;8.510;2023-06-22T14:26:58;21.00;99.90
26278;DHT22;14000;52.056;8.510;2023-06-22T14:29:27;20.90;99.90
26278;DHT22;14000;52.056;8.510;2023-06-22T14:31:53;20.80;99.90
26278;DHT22;14000;52.056;8.510;2023-06-22T14:34:18;20.70;99.90
26278;DHT22;14000;52.056;8.510;2023-06-22T14:36:44;20.60;99.90
26278;DHT22;14000;52.056;8.510;2023-06-22T14:39:10;20.60;99.90
26278;DHT22;14000;52.056;8.510;2023-06-22T14:41:35;20.60;99.90
26278;DHT22;14000;52.056;8.510;2023-06-22T14:44:01;20.50;99.90
26278;DHT22;14000;52.056;8.510;2023-06-22T14:46:27;20.50;99.90
26278;DHT22;14000;52.056;8.510;2023-06-22T14:48:53;20.50;99.90
26278;DHT22;14000;52.056;8.510;2023-06-22T14:51:18;20.40;99.90
26278;DHT22;14000;52.056;8.510;2023-06-22T14:53:44;20.40;99.90
26278;DHT22;14000;52.056;8.510;2023-06-22T14:56:10;20.30;99.90
26278;DHT22;14000;52.056;8.510;2023-06-22T14:58:36;20.30;99.90
26278;DHT22;14000;52.056;8.510;2023-06-22T15:01:03;20.30;99.90
26278;DHT22;14000;52.056;8.510;2023-06-22T15:03:30;20.30;99.90
26278;DHT22;14000;52.056;8.510;2023-06-22T15:05:57;20.30;99.90
26278;DHT22;14000;52.056;8.510;2023-06-22T15:08:23;20.20;99.90
26278;DHT22;14000;52.056;8.510;2023-06-22T15:10:50;20.30;99.90
26278;DHT22;14000;52.056;8.510;2023-06-22T15:13:16;20.30;99.90
26278;DHT22;14000;52.056;8.510;2023-06-22T15:15:43;20.40;99.90
26278;DHT22;14000;52.056;8.510;2023-06-22T15:18:09;20.50;99.90
26278;DHT22;14000;52.056;8.510;2023-06-22T15:20:34;20.40;99.90
26278;DHT22;14000;52.056;8.510;2023-06-22T15:23:00;20.40;99.90
26278;DHT22;14000;52.056;8.510;2023-06-22T15:25:25;20.40;99.90
26278;DHT22;14000;52.056;8.510;2023-06-22T15:27:51;20.40;99.90
26278;DHT22;14000;52.056;8.510;2023-06-22T15:30:17;20.50;99.90
26278;DHT22;14000;52.056;8.510;2023-06-22T15:32:43;20.50;99.90
26278;DHT22;14000;52.056;8.510;2023-06-22T15:35:10;20.60;99.90